createdAt,value
2017-08-20T00:00:50.734Z,100903
2017-08-20T00:03:20.724Z,100904
2017-08-20T00:05:50.627Z,100898
2017-08-20T00:08:20.501Z,100894
2017-08-20T00:10:50.419Z,100910
2017-08-20T00:13:20.336Z,100907
2017-08-20T00:15:50.262Z,100908
2017-08-20T00:18:20.212Z,100909
2017-08-20T00:20:50.179Z,100893
2017-08-20T00:23:20.036Z,100900
2017-08-20T00:25:49.940Z,100892
2017-08-20T00:28:19.827Z,100909
2017-08-20T00:30:49.714Z,100900
2017-08-20T00:33:20.015Z,100905
2017-08-20T00:35:50.109Z,100902
2017-08-20T00:38:20.072Z,100892
2017-08-20T00:40:50.040Z,100904
2017-08-20T00:43:19.911Z,100895
2017-08-20T00:45:49.847Z,100899
2017-08-20T00:48:19.722Z,100892
2017-08-20T00:50:49.621Z,100895
2017-08-20T00:53:19.645Z,100901
2017-08-20T00:55:49.557Z,100890
2017-08-20T00:58:19.441Z,100900
2017-08-20T01:00:49.355Z,100906
2017-08-20T01:03:19.274Z,100902
2017-08-20T01:05:49.157Z,100903
2017-08-20T01:08:19.047Z,100899
2017-08-20T01:10:48.937Z,100894
2017-08-20T01:13:18.821Z,100899
2017-08-20T01:15:48.695Z,100900
2017-08-20T01:18:18.613Z,100891
2017-08-20T01:20:48.492Z,100883
2017-08-20T01:23:18.382Z,100897
2017-08-20T01:25:48.821Z,100895
2017-08-20T01:28:18.685Z,100901
2017-08-20T01:30:48.537Z,100897
2017-08-20T01:33:18.458Z,100896
2017-08-20T01:35:48.313Z,100893
2017-08-20T01:38:18.293Z,100892
2017-08-20T01:40:48.150Z,100886
2017-08-20T01:43:18.021Z,100901
2017-08-20T01:45:47.876Z,100898
2017-08-20T01:48:17.756Z,100895
2017-08-20T01:50:47.710Z,100895
2017-08-20T01:53:17.575Z,100892
2017-08-20T01:55:47.473Z,100885
2017-08-20T01:58:17.332Z,100886
2017-08-20T02:00:47.312Z,100883
2017-08-20T02:03:17.183Z,100889
2017-08-20T02:05:47.078Z,100885
2017-08-20T02:08:16.983Z,100892
2017-08-20T02:10:46.870Z,100897
2017-08-20T02:13:16.744Z,100882
2017-08-20T02:15:46.622Z,100897
2017-08-20T02:18:16.508Z,100913
2017-08-20T02:20:46.362Z,100901
2017-08-20T02:23:16.250Z,100913
2017-08-20T02:25:46.118Z,100910
2017-08-20T02:28:16.035Z,100904
2017-08-20T02:30:45.945Z,100904
2017-08-20T02:33:15.837Z,100893
2017-08-20T02:35:45.738Z,100901
2017-08-20T02:38:15.595Z,100905
2017-08-20T02:40:45.641Z,100909
2017-08-20T02:43:15.526Z,100912
2017-08-20T02:45:45.418Z,100920
2017-08-20T02:48:15.331Z,100912
2017-08-20T02:50:45.252Z,100920
2017-08-20T02:53:15.096Z,100917
2017-08-20T02:55:44.993Z,100909
2017-08-20T02:58:14.855Z,100910
2017-08-20T03:00:44.788Z,100914
2017-08-20T03:03:14.695Z,100913
2017-08-20T03:05:44.558Z,100916
2017-08-20T03:08:14.441Z,100912
2017-08-20T03:10:44.292Z,100912
2017-08-20T03:13:14.145Z,100914
2017-08-20T03:15:43.978Z,100917
2017-08-20T03:18:13.899Z,100914
2017-08-20T03:20:43.783Z,100919
2017-08-20T03:23:13.647Z,100931
2017-08-20T03:25:43.556Z,100927
2017-08-20T03:28:13.577Z,100933
2017-08-20T03:30:43.472Z,100930
2017-08-20T03:33:13.348Z,100932
2017-08-20T03:35:43.222Z,100940
2017-08-20T03:38:13.090Z,100928
2017-08-20T03:40:42.998Z,100933
2017-08-20T03:43:12.875Z,100933
2017-08-20T03:45:42.789Z,100937
2017-08-20T03:48:12.669Z,100938
2017-08-20T03:50:42.536Z,100941
2017-08-20T03:53:12.420Z,100945
2017-08-20T03:55:42.324Z,100950
2017-08-20T03:58:12.235Z,100952
2017-08-20T04:00:42.111Z,100947
2017-08-20T04:03:12.000Z,100944
2017-08-20T04:05:41.871Z,100952
2017-08-20T04:08:11.825Z,100952
2017-08-20T04:10:41.705Z,100950
2017-08-20T04:13:11.580Z,100947
2017-08-20T04:15:41.498Z,100947
2017-08-20T04:18:11.382Z,100951
2017-08-20T04:20:41.250Z,100957
2017-08-20T04:23:11.113Z,100971
2017-08-20T04:25:41.069Z,100967
2017-08-20T04:28:10.978Z,100961
2017-08-20T04:30:40.897Z,100961
2017-08-20T04:33:10.777Z,100966
2017-08-20T04:35:40.653Z,100960
2017-08-20T04:38:10.588Z,100962
2017-08-20T04:40:40.489Z,100957
2017-08-20T04:43:10.419Z,100957
2017-08-20T04:45:40.288Z,100953
2017-08-20T04:48:10.168Z,100960
2017-08-20T04:50:40.065Z,100973
2017-08-20T04:53:09.940Z,100982
2017-08-20T04:55:39.789Z,100977
2017-08-20T04:58:09.688Z,100980
2017-08-20T05:00:39.592Z,100973
2017-08-20T05:03:09.488Z,100977
2017-08-20T05:05:39.371Z,100973
2017-08-20T05:08:09.224Z,100968
2017-08-20T05:10:39.106Z,100972
2017-08-20T05:13:08.974Z,100977
2017-08-20T05:15:38.858Z,100977
2017-08-20T05:18:08.708Z,100982
2017-08-20T05:20:38.585Z,100976
2017-08-20T05:23:08.459Z,100970
2017-08-20T05:25:38.311Z,100981
2017-08-20T05:28:08.351Z,100972
2017-08-20T05:30:38.256Z,100972
2017-08-20T05:33:08.145Z,100974
2017-08-20T05:35:38.018Z,100981
2017-08-20T05:38:07.937Z,100970
2017-08-20T05:40:37.797Z,100984
2017-08-20T05:43:07.681Z,100982
2017-08-20T05:45:37.588Z,100981
2017-08-20T05:48:07.567Z,100988
2017-08-20T05:50:37.637Z,100990
2017-08-20T05:53:07.491Z,100996
2017-08-20T05:55:37.438Z,100990
2017-08-20T05:58:07.355Z,100996
2017-08-20T06:00:37.272Z,100991
2017-08-20T06:03:07.181Z,100986
2017-08-20T06:05:37.097Z,101003
2017-08-20T06:08:07.004Z,100999
2017-08-20T06:10:36.937Z,101001
2017-08-20T06:13:06.877Z,101004
2017-08-20T06:15:36.747Z,101008
2017-08-20T06:18:06.630Z,101005
2017-08-20T06:20:36.651Z,101007
2017-08-20T06:23:06.519Z,101004
2017-08-20T06:25:36.361Z,100997
2017-08-20T06:28:06.292Z,100999
2017-08-20T06:30:36.203Z,101003
2017-08-20T06:33:06.140Z,101017
2017-08-20T06:35:35.996Z,101004
2017-08-20T06:38:05.994Z,101013
2017-08-20T06:40:35.862Z,101011
2017-08-20T06:43:05.790Z,101008
2017-08-20T06:45:35.677Z,101003
2017-08-20T06:48:05.597Z,100999
2017-08-20T06:50:35.481Z,101006
2017-08-20T06:53:05.339Z,101010
2017-08-20T06:55:35.269Z,101005
2017-08-20T06:58:05.126Z,101011
2017-08-20T07:00:35.036Z,101011
2017-08-20T07:03:04.899Z,101007
2017-08-20T07:05:34.788Z,101013
2017-08-20T07:08:04.667Z,101013
2017-08-20T07:10:34.543Z,101016
2017-08-20T07:13:04.456Z,101016
2017-08-20T07:15:34.318Z,101010
2017-08-20T07:18:04.281Z,100999
2017-08-20T07:20:34.158Z,101006
2017-08-20T07:23:04.043Z,101002
2017-08-20T07:25:33.906Z,100999
2017-08-20T07:28:03.808Z,101000
2017-08-20T07:30:33.720Z,101010
2017-08-20T07:33:03.631Z,101005
2017-08-20T07:35:33.527Z,101002
2017-08-20T07:38:03.451Z,101009
2017-08-20T07:40:33.338Z,101012
2017-08-20T07:43:03.227Z,101003
2017-08-20T07:45:33.125Z,101025
2017-08-20T07:48:02.992Z,101018
2017-08-20T07:50:32.900Z,101027
2017-08-20T07:53:05.664Z,101023
2017-08-20T07:55:35.596Z,101011
2017-08-20T07:58:05.521Z,101019
2017-08-20T08:00:35.445Z,101023
2017-08-20T08:03:05.354Z,101025
2017-08-20T08:05:35.287Z,101026
2017-08-20T08:08:05.153Z,101021
2017-08-20T08:10:35.055Z,101039
2017-08-20T08:13:04.945Z,101036
2017-08-20T08:15:34.913Z,101035
2017-08-20T08:18:04.803Z,101037
2017-08-20T08:20:35.013Z,101034
2017-08-20T08:23:04.955Z,101035
2017-08-20T08:25:34.827Z,101024
2017-08-20T08:28:04.726Z,101031
2017-08-20T08:30:34.604Z,101035
2017-08-20T08:45:03.514Z,101034
2017-08-20T08:50:19.309Z,101030
2017-08-20T08:52:49.166Z,101035
2017-08-20T08:55:19.093Z,101017
2017-08-20T08:57:48.973Z,101033
2017-08-20T09:00:18.904Z,101030
2017-08-20T09:02:48.784Z,101029
2017-08-20T09:05:18.671Z,101048
2017-08-20T09:07:49.462Z,101036
2017-08-20T09:10:19.338Z,101040
2017-08-20T09:12:49.232Z,101040
2017-08-20T09:15:19.126Z,101025
2017-08-20T09:17:49.038Z,101033
2017-08-20T09:20:18.915Z,101029
2017-08-20T09:22:48.934Z,101040
2017-08-20T09:25:18.820Z,101034
2017-08-20T09:27:50.236Z,101030
2017-08-20T09:30:21.320Z,101029
2017-08-20T09:32:54.127Z,101038
2017-08-20T09:35:26.082Z,101034
2017-08-20T09:37:56.965Z,101032
2017-08-20T09:40:28.694Z,101027
2017-08-20T09:42:58.552Z,101034
2017-08-20T09:45:29.345Z,101029
2017-08-20T09:48:00.571Z,101032
2017-08-20T09:50:35.167Z,101020
2017-08-20T09:53:07.910Z,101031
2017-08-20T09:55:40.310Z,101031
2017-08-20T09:58:13.956Z,101035
2017-08-20T10:00:55.372Z,101037
2017-08-20T10:03:26.900Z,101031
2017-08-20T10:05:58.286Z,101035
2017-08-20T10:08:32.919Z,101031
2017-08-20T10:11:09.606Z,101038
2017-08-20T10:13:39.809Z,101041
2017-08-20T10:16:09.703Z,101027
2017-08-20T10:18:39.615Z,101042
2017-08-20T10:21:09.488Z,101032
2017-08-20T10:23:39.392Z,101035
2017-08-20T10:26:09.405Z,101029
2017-08-20T10:28:39.316Z,101024
2017-08-20T10:31:09.191Z,101023
2017-08-20T10:33:39.129Z,100922
2017-08-20T10:36:09.041Z,101011
2017-08-20T10:38:38.984Z,101008
2017-08-20T10:41:08.895Z,101007
2017-08-20T10:43:38.828Z,101016
2017-08-20T10:46:08.808Z,101017
2017-08-20T10:48:38.674Z,101014
2017-08-20T10:51:08.569Z,101022
2017-08-20T10:53:38.453Z,101039
2017-08-20T10:56:08.361Z,101068
2017-08-20T10:58:38.213Z,101080
2017-08-20T11:01:08.131Z,101083
2017-08-20T11:03:38.058Z,101090
2017-08-20T11:06:07.973Z,101082
2017-08-20T11:08:37.879Z,101094
2017-08-20T11:11:07.836Z,101088
2017-08-20T11:13:37.742Z,101094
2017-08-20T11:16:07.626Z,101092
2017-08-20T11:18:37.569Z,101100
2017-08-20T11:21:07.475Z,101096
2017-08-20T11:23:37.400Z,101090
2017-08-20T11:26:07.285Z,101090
2017-08-20T11:28:37.215Z,101091
2017-08-20T11:31:07.096Z,101094
2017-08-20T11:33:37.014Z,101091
2017-08-20T11:36:06.899Z,101088
2017-08-20T11:38:36.789Z,101087
2017-08-20T11:41:06.727Z,101082
2017-08-20T11:43:36.609Z,101088
2017-08-20T11:46:06.520Z,101081
2017-08-20T11:48:36.497Z,101089
2017-08-20T11:51:06.410Z,101089
2017-08-20T11:53:36.311Z,101091
2017-08-20T11:56:06.229Z,101082
2017-08-20T11:58:36.111Z,101084
2017-08-20T12:01:06.018Z,101082
2017-08-20T12:03:35.928Z,101092
2017-08-20T12:06:05.840Z,101085
2017-08-20T12:08:35.786Z,101085
2017-08-20T12:11:05.689Z,101087
2017-08-20T12:13:35.634Z,101085
2017-08-20T12:16:05.600Z,101089
2017-08-20T12:18:35.608Z,101096
2017-08-20T12:21:05.490Z,101093
2017-08-20T12:23:35.419Z,101094
2017-08-20T12:26:05.370Z,101103
2017-08-20T12:28:35.345Z,101106
2017-08-20T12:31:05.224Z,101107
2017-08-20T12:33:35.179Z,101117
2017-08-20T12:36:05.073Z,101136
2017-08-20T12:38:34.990Z,101123
2017-08-20T12:41:04.909Z,101127
2017-08-20T12:43:34.804Z,101124
2017-08-20T12:46:04.730Z,101119
2017-08-20T12:48:34.594Z,101123
2017-08-20T12:51:04.486Z,101128
2017-08-20T12:53:34.374Z,101114
2017-08-20T12:56:04.266Z,101119
2017-08-20T12:58:34.184Z,101118
2017-08-20T13:01:04.112Z,101114
2017-08-20T13:03:33.996Z,101113
2017-08-20T13:06:03.897Z,101114
2017-08-20T13:08:33.871Z,101115
2017-08-20T13:11:03.736Z,101118
2017-08-20T13:13:33.666Z,101115
2017-08-20T13:16:03.550Z,101032
2017-08-20T13:18:33.595Z,101118
2017-08-20T13:21:03.507Z,101118
2017-08-20T13:23:33.391Z,101119
2017-08-20T13:26:03.890Z,101132
2017-08-20T13:28:33.807Z,101133
2017-08-20T13:31:03.703Z,101130
2017-08-20T13:33:33.606Z,101129
2017-08-20T13:36:03.975Z,101127
2017-08-20T13:38:33.875Z,101121
2017-08-20T13:41:03.764Z,101120
2017-08-20T13:43:33.684Z,101118
2017-08-20T13:46:03.909Z,101121
2017-08-20T13:48:33.784Z,101134
2017-08-20T13:51:04.086Z,101127
2017-08-20T13:53:34.032Z,101137
2017-08-20T13:56:03.900Z,101135
2017-08-20T13:58:33.813Z,101124
2017-08-20T14:01:03.700Z,101131
2017-08-20T14:03:33.581Z,101127
2017-08-20T14:06:03.496Z,101126
2017-08-20T14:08:33.409Z,101138
2017-08-20T14:11:03.291Z,101126
2017-08-20T14:13:33.264Z,101130
2017-08-20T14:16:03.166Z,101121
2017-08-20T14:18:33.133Z,101130
2017-08-20T14:21:04.673Z,101132
2017-08-20T14:23:35.464Z,101134
2017-08-20T14:26:05.540Z,101143
2017-08-20T14:28:35.449Z,101138
2017-08-20T14:31:05.362Z,101146
2017-08-20T14:33:35.226Z,101144
2017-08-20T14:36:05.212Z,101150
2017-08-20T14:38:35.178Z,101143
2017-08-20T14:41:05.112Z,101146
2017-08-20T14:43:35.127Z,101130
2017-08-20T14:46:05.130Z,101129
2017-08-20T14:48:35.024Z,101140
2017-08-20T14:51:04.892Z,101153
2017-08-20T14:53:34.781Z,101155
2017-08-20T14:56:04.689Z,101153
2017-08-20T14:58:34.634Z,101153
2017-08-20T15:01:04.509Z,101157
2017-08-20T15:03:34.426Z,101164
2017-08-20T15:06:04.375Z,101179
2017-08-20T15:08:34.274Z,101180
2017-08-20T15:11:04.147Z,101186
2017-08-20T15:13:34.067Z,100930
2017-08-20T15:16:03.967Z,101177
2017-08-20T15:18:33.882Z,100934
2017-08-20T15:21:03.777Z,101183
2017-08-20T15:23:33.674Z,101177
2017-08-20T15:26:03.571Z,101182
2017-08-20T15:28:33.432Z,101185
2017-08-20T15:31:03.342Z,100844
2017-08-20T15:33:33.227Z,101186
2017-08-20T15:36:03.162Z,101182
2017-08-20T15:38:33.166Z,101194
2017-08-20T15:41:03.164Z,101187
2017-08-20T15:43:33.015Z,101182
2017-08-20T15:46:02.925Z,101184
2017-08-20T15:48:32.838Z,101173
2017-08-20T15:51:02.762Z,101175
2017-08-20T15:53:32.654Z,101173
2017-08-20T15:56:02.545Z,101178
2017-08-20T15:58:32.544Z,101178
2017-08-20T16:01:02.414Z,101175
2017-08-20T16:03:32.322Z,101175
2017-08-20T16:06:02.210Z,101177
2017-08-20T16:08:32.138Z,101171
2017-08-20T16:11:01.995Z,101169
2017-08-20T16:13:32.799Z,101178
2017-08-20T16:16:02.666Z,101175
2017-08-20T16:18:32.576Z,101170
2017-08-20T16:21:02.447Z,101164
2017-08-20T16:23:32.369Z,101162
2017-08-20T16:26:02.442Z,101161
2017-08-20T16:28:32.350Z,101165
2017-08-20T16:31:04.044Z,101167
2017-08-20T16:33:33.945Z,101153
2017-08-20T16:36:03.928Z,101175
2017-08-20T16:38:33.889Z,101166
2017-08-20T16:41:04.324Z,101171
2017-08-20T16:43:34.256Z,101168
2017-08-20T16:46:04.157Z,101167
2017-08-20T16:48:34.058Z,101166
2017-08-20T16:51:03.988Z,101157
2017-08-20T16:53:33.887Z,101148
2017-08-20T16:56:03.777Z,101152
2017-08-20T16:58:33.743Z,101158
2017-08-20T17:01:03.662Z,101146
2017-08-20T17:03:33.548Z,101152
2017-08-20T17:06:03.597Z,101147
2017-08-20T17:08:33.468Z,101160
2017-08-20T17:11:03.431Z,101165
2017-08-20T17:13:33.460Z,101162
2017-08-20T17:16:03.837Z,101165
2017-08-20T17:18:33.772Z,101171
2017-08-20T17:21:03.758Z,101163
2017-08-20T17:23:35.753Z,101164
2017-08-20T17:26:05.666Z,101168
2017-08-20T17:28:35.842Z,101032
2017-08-20T17:31:05.767Z,101182
2017-08-20T17:33:35.666Z,101180
2017-08-20T17:36:05.896Z,101184
2017-08-20T17:38:36.472Z,101187
2017-08-20T17:41:06.411Z,101188
2017-08-20T17:43:36.332Z,101194
2017-08-20T17:46:07.387Z,101179
2017-08-20T17:48:37.294Z,101188
2017-08-20T17:51:07.266Z,101184
2017-08-20T17:53:37.202Z,101202
2017-08-20T17:56:07.108Z,101192
2017-08-20T17:58:37.092Z,101200
2017-08-20T18:01:07.006Z,101202
2017-08-20T18:03:36.894Z,101205
2017-08-20T18:06:06.795Z,101202
2017-08-20T18:08:37.447Z,101213
2017-08-20T18:11:07.376Z,101220
2017-08-20T18:13:37.753Z,101221
2017-08-20T18:16:07.736Z,101223
2017-08-20T18:18:37.958Z,101219
2017-08-20T18:21:07.894Z,101225
2017-08-20T18:23:37.979Z,101223
2017-08-20T18:26:07.889Z,101224
2017-08-20T18:28:37.970Z,101216
2017-08-20T18:31:08.017Z,101210
2017-08-20T18:33:37.992Z,101224
2017-08-20T18:36:07.937Z,101225
2017-08-20T18:38:37.897Z,101220
2017-08-20T18:41:07.852Z,101227
2017-08-20T18:43:37.739Z,101236
2017-08-20T18:46:07.671Z,101226
2017-08-20T18:48:37.689Z,101231
2017-08-20T18:51:07.703Z,101231
2017-08-20T18:53:37.726Z,101243
2017-08-20T18:56:07.727Z,101240
2017-08-20T18:58:37.696Z,101250
2017-08-20T19:01:07.840Z,101251
2017-08-20T19:03:37.813Z,101248
2017-08-20T19:06:07.905Z,101248
2017-08-20T19:08:37.902Z,101256
2017-08-20T19:11:07.949Z,101255
2017-08-20T19:13:37.968Z,101260
2017-08-20T19:16:08.012Z,101263
2017-08-20T19:18:38.031Z,101266
2017-08-20T19:21:08.096Z,101265
2017-08-20T19:23:38.102Z,101252
2017-08-20T19:26:08.134Z,101258
2017-08-20T19:28:38.139Z,101259
2017-08-20T19:31:08.219Z,101264
2017-08-20T19:33:38.289Z,101262
2017-08-20T19:36:08.287Z,101265
2017-08-20T19:38:38.312Z,101267
2017-08-20T19:41:08.379Z,101279
2017-08-20T19:43:38.303Z,101278
2017-08-20T19:46:08.344Z,101266
2017-08-20T19:48:38.291Z,101276
2017-08-20T19:51:08.316Z,101279
2017-08-20T19:53:38.323Z,101276
2017-08-20T19:56:08.463Z,101279
2017-08-20T19:58:38.465Z,101272
2017-08-20T20:01:08.448Z,101271
2017-08-20T20:03:38.351Z,101262
2017-08-20T20:06:08.294Z,101279
2017-08-20T20:08:38.208Z,101269
2017-08-20T20:11:08.119Z,101274
2017-08-20T20:13:37.988Z,101270
2017-08-20T20:16:07.890Z,101267
2017-08-20T20:18:37.807Z,101269
2017-08-20T20:21:07.702Z,101257
2017-08-20T20:23:37.694Z,101264
2017-08-20T20:26:07.632Z,101258
2017-08-20T20:28:37.580Z,101261
2017-08-20T20:31:07.447Z,101269
2017-08-20T20:33:37.354Z,101268
2017-08-20T20:36:07.359Z,101269
2017-08-20T20:38:37.347Z,101265
2017-08-20T20:41:07.271Z,101254
2017-08-20T20:43:37.227Z,101260
2017-08-20T20:46:07.806Z,101263
2017-08-20T20:48:37.798Z,101257
2017-08-20T20:51:07.742Z,101263
2017-08-20T20:53:37.678Z,101272
2017-08-20T20:56:07.551Z,101269
2017-08-20T20:58:37.476Z,101269
2017-08-20T21:01:07.451Z,101272
2017-08-20T21:03:37.364Z,101258
2017-08-20T21:06:07.222Z,101264
2017-08-20T21:08:37.095Z,101269
2017-08-20T21:11:07.019Z,101271
2017-08-20T21:13:36.894Z,101265
2017-08-20T21:16:06.772Z,101267
2017-08-20T21:18:36.661Z,101271
2017-08-20T21:21:06.577Z,101271
2017-08-20T21:23:36.443Z,101270
2017-08-20T21:26:06.394Z,101267
2017-08-20T21:28:36.243Z,101269
2017-08-20T21:31:06.152Z,101262
2017-08-20T21:33:36.015Z,101282
2017-08-20T21:36:05.960Z,101270
2017-08-20T21:38:35.932Z,101271
2017-08-20T21:41:05.829Z,101002
2017-08-20T21:43:35.715Z,101265
2017-08-20T21:46:05.618Z,101266
2017-08-20T21:48:35.534Z,101267
2017-08-20T21:51:05.440Z,101264
2017-08-20T21:53:35.368Z,101262
2017-08-20T21:56:05.236Z,101267
2017-08-20T21:58:35.161Z,101264
2017-08-20T22:01:05.016Z,101259
2017-08-20T22:03:34.964Z,101252
2017-08-20T22:06:04.860Z,101256
2017-08-20T22:08:34.766Z,101251
2017-08-20T22:11:04.781Z,101254
2017-08-20T22:13:34.687Z,101249
2017-08-20T22:16:04.582Z,101249
2017-08-20T22:18:34.448Z,101248
2017-08-20T22:21:04.344Z,101250
2017-08-20T22:23:34.190Z,101255
2017-08-20T22:26:04.149Z,101253
2017-08-20T22:28:34.059Z,101251
2017-08-20T22:31:03.965Z,101253
2017-08-20T22:33:33.869Z,101260
2017-08-20T22:36:03.742Z,101265
2017-08-20T22:38:33.879Z,101259
2017-08-20T22:41:03.745Z,101261
2017-08-20T22:43:33.661Z,101263
2017-08-20T22:46:03.534Z,101251
2017-08-20T22:48:33.571Z,101265
2017-08-20T22:51:03.458Z,101258
2017-08-20T22:53:33.361Z,101252
2017-08-20T22:56:03.245Z,101260
2017-08-20T22:58:33.167Z,101255
2017-08-20T23:01:03.035Z,101266
2017-08-20T23:03:32.957Z,101257
2017-08-20T23:06:02.829Z,101261
2017-08-20T23:08:32.743Z,101252
2017-08-20T23:11:02.683Z,101261
2017-08-20T23:13:32.553Z,101252
2017-08-20T23:16:02.461Z,101251
2017-08-20T23:18:32.335Z,101250
2017-08-20T23:21:02.318Z,101247
2017-08-20T23:23:32.209Z,101258
2017-08-20T23:26:02.093Z,101254
2017-08-20T23:28:31.995Z,101248
2017-08-20T23:31:01.875Z,101251
2017-08-20T23:33:31.725Z,101246
2017-08-20T23:36:01.603Z,101249
2017-08-20T23:38:31.549Z,101249
2017-08-20T23:41:01.423Z,101252
2017-08-20T23:43:31.326Z,101250
2017-08-20T23:46:01.188Z,101250
2017-08-20T23:48:31.104Z,101248
2017-08-20T23:51:00.983Z,101251
2017-08-20T23:53:30.917Z,101249
2017-08-20T23:56:00.842Z,101241
2017-08-20T23:58:30.737Z,101230
